Fort Benning, GA

4:24 PM EST en Noviembre 24, 2014 (GMT -0500)
APRSWXNET Phenix City AL US | Change Station
CLOSE
Current Station
Estación meteorológica personal
Location: Phenix City, AL
Altura: 282 ft
Estaciones meteorológicas cercanas

Alt 282 ft 32.44 °N, 85.02 °W | Updated 41 minutes ago

Despejado
Despejado
79 ° F
Sensación térmica 80 ° F
N
5
Viento Variable Viento desde NO
Gusts 12.0 mph

Hoy
Alta -- | Baja -- ° F
--% Posibilidad de precipitaciones
Ayer
Alta -- | Baja -- ° F
Precip. -- pul
7:17 AM 5:35 PM
Creciente, 7% visible
Presión 29.80 pul
Visibilidad 10.0 Millas
Nubes Despejado
Índice de calor 80 ° F
Punto de rocío 61 ° F
Humedad 55%
Precipitaciones 0.00 pul
Espesor de la nieve No disponible.
UV 1 de una escala de 12
Polen 1.80 de una escala de 12
Calidad del aire No disponible.
Flu Activity No disponible.
METAR KCSG 242051Z 29010KT 10SM CLR 25/13 A2981 RMK AO2 SLP089 T02500128 53001

More Conditions Fewer Conditions

Presión 29.80 pul
Visibilidad 10.0 Millas
Nubes Despejado
Índice de calor 80 ° F
Punto de rocío 61 ° F
Humedad 55%
Precipitaciones 0.00 pul
Espesor de la nieve No disponible.
UV 1 de una escala de 12
Polen 1.80 de una escala de 12
Calidad del aire No disponible.
Flu Activity No disponible.
METAR KCSG 242051Z 29010KT 10SM CLR 25/13 A2981 RMK AO2 SLP089 T02500128 53001

More Conditions Fewer Conditions

10-Day Weather Forecast

Almanac

Astronomía

Nov. 24, 2014 Salida Puesta
Hora real
Crepúsculo civil
Crepúsculo náutico
Crepúsculo astronómico
Luna
Horas de luz
Horas de luz
Tomorrow will be .
, % of the Moon is Illuminated

Extremos de hoy

Máximos del estado Bajos del estado

Community

WunderPhotos

Upload Photos

1,773,414 ¡fotos cargadas!

WunderBlogs® & News

Nearby

Calidad del aire

  Calidad del aire Índice AQ Contaminante
Not available.

Grosos de nieve

Estación Profundido Altura

Actividad de terremotos

Ciudad Distance Mag. Tiempo y dato
Magnitud mínima muestra es 2,5.

Temperaturas de aguas costeras

Lugar Temperatura

Estaciones meteorológicas cercanas